Time;durP1;ratioP1;P1;durP2;ratioP2;P2;SDS_P1;SDS_P2;PMS_P1;PMS_P2;Temp;Humidity;BMP_temperature;BMP_pressure;BME280_temperature;BME280_humidity;BME280_pressure;Samples;Min_cycle;Max_cycle;Signal;HPM_P1;HPM_P2
2023/10/31 00:00:39;;;;;;;5.63;4.40;;;9.70;99.90;;;;;;5065180;28;20052;-86
2023/10/31 00:03:04;;;;;;;5.63;4.00;;;9.60;99.90;;;;;;5064485;28;20035;-86
2023/10/31 00:05:30;;;;;;;6.45;4.88;;;9.60;99.90;;;;;;5058113;28;20082;-86
2023/10/31 00:07:55;;;;;;;7.75;4.45;;;9.60;99.90;;;;;;5113893;27;20043;-86
2023/10/31 00:10:21;;;;;;;5.97;4.78;;;9.60;99.90;;;;;;5075889;28;20032;-84
2023/10/31 00:12:55;;;;;;;5.18;4.68;;;9.60;99.90;;;;;;5096006;28;20048;-85
2023/10/31 00:15:21;;;;;;;7.10;4.28;;;9.50;99.90;;;;;;5078296;28;20023;-86
2023/10/31 00:17:46;;;;;;;5.85;4.10;;;9.50;99.90;;;;;;5087432;28;20073;-86
2023/10/31 00:20:12;;;;;;;7.90;4.72;;;9.50;99.90;;;;;;5063922;28;20094;-87
2023/10/31 00:22:38;;;;;;;5.93;5.32;;;9.50;99.90;;;;;;5059070;28;20039;-87
2023/10/31 00:25:04;;;;;;;7.57;5.05;;;9.50;99.90;;;;;;5112759;27;20024;-86
2023/10/31 00:27:29;;;;;;;5.60;4.53;;;9.50;99.90;;;;;;5063953;28;20028;-86
2023/10/31 00:29:55;;;;;;;5.63;3.97;;;9.50;99.90;;;;;;5062954;28;20135;-86
2023/10/31 00:32:21;;;;;;;5.85;4.03;;;9.40;99.90;;;;;;5117362;27;20043;-85
2023/10/31 00:34:47;;;;;;;6.93;3.35;;;9.30;99.90;;;;;;5106376;28;20019;-84
2023/10/31 00:37:12;;;;;;;5.95;2.80;;;9.30;99.90;;;;;;5054361;28;20028;-85
2023/10/31 00:39:38;;;;;;;4.28;2.83;;;9.20;99.90;;;;;;5066375;28;20705;-86
2023/10/31 00:42:05;;;;;;;10.10;3.03;;;9.20;99.90;;;;;;5112900;27;20016;-86
2023/10/31 00:44:31;;;;;;;8.25;3.20;;;9.10;99.90;;;;;;5063471;28;20031;-87
2023/10/31 00:46:56;;;;;;;2.70;2.50;;;9.10;99.90;;;;;;5064941;28;20023;-85
2023/10/31 00:49:23;;;;;;;4.85;2.53;;;9.00;99.90;;;;;;5081821;28;20020;-86
2023/10/31 00:51:48;;;;;;;3.58;2.80;;;9.00;99.90;;;;;;5063941;28;20115;-85
2023/10/31 00:54:14;;;;;;;4.82;2.97;;;9.00;99.90;;;;;;5082624;28;20050;-86
2023/10/31 00:56:40;;;;;;;3.17;2.72;;;9.00;99.90;;;;;;5082678;28;20024;-85
2023/10/31 00:59:05;;;;;;;4.80;2.83;;;8.90;99.90;;;;;;5083843;28;20041;-84
2023/10/31 01:01:34;;;;;;;3.80;2.30;;;8.90;99.90;;;;;;5066396;28;20026;-87
2023/10/31 01:04:00;;;;;;;3.42;2.45;;;8.90;99.90;;;;;;5114515;28;20498;-85
2023/10/31 01:06:26;;;;;;;2.33;1.83;;;8.80;99.90;;;;;;5068171;28;20027;-86
2023/10/31 01:08:52;;;;;;;4.60;1.40;;;8.80;99.90;;;;;;5116589;27;20062;-85
2023/10/31 01:11:18;;;;;;;5.32;1.95;;;8.80;99.90;;;;;;5121615;27;20025;-85
2023/10/31 01:13:43;;;;;;;5.60;1.90;;;8.80;99.90;;;;;;5066678;28;20028;-86
2023/10/31 01:16:09;;;;;;;2.83;1.88;;;8.80;99.90;;;;;;5098179;28;20042;-86
2023/10/31 01:18:35;;;;;;;3.72;2.13;;;8.70;99.90;;;;;;5066532;28;20109;-86
2023/10/31 01:21:01;;;;;;;2.58;1.88;;;8.70;99.90;;;;;;5114910;27;20077;-87
2023/10/31 01:23:26;;;;;;;9.80;1.80;;;8.70;99.90;;;;;;5067843;28;20084;-86
2023/10/31 01:25:52;;;;;;;4.05;2.10;;;8.70;99.90;;;;;;5065338;28;20453;-87
2023/10/31 01:28:18;;;;;;;3.22;2.92;;;8.70;99.90;;;;;;5112340;27;20039;-86
2023/10/31 01:30:44;;;;;;;2.90;2.17;;;8.70;99.90;;;;;;5067359;28;20133;-86
2023/10/31 01:33:10;;;;;;;3.08;2.53;;;8.70;99.90;;;;;;5063624;28;20068;-87
2023/10/31 01:35:35;;;;;;;7.35;1.90;;;8.60;99.90;;;;;;5067580;28;20080;-86
2023/10/31 01:38:01;;;;;;;4.40;2.60;;;8.50;99.90;;;;;;5062043;28;20024;-87
2023/10/31 01:40:27;;;;;;;4.38;2.00;;;8.40;99.90;;;;;;5071895;28;20016;-87
2023/10/31 01:42:55;;;;;;;3.28;2.00;;;8.30;99.90;;;;;;5068142;28;20039;-87
2023/10/31 01:45:20;;;;;;;7.57;2.17;;;8.20;99.90;;;;;;5071410;28;20027;-86
2023/10/31 01:47:49;;;;;;;7.03;2.22;;;8.10;99.90;;;;;;5121103;27;20026;-86
2023/10/31 01:50:15;;;;;;;3.47;2.13;;;8.10;99.90;;;;;;5087022;28;20023;-86
2023/10/31 01:52:41;;;;;;;2.95;2.60;;;8.10;99.90;;;;;;5063583;28;20135;-85
2023/10/31 01:55:08;;;;;;;3.55;2.58;;;8.00;99.90;;;;;;5091800;28;20871;-86
2023/10/31 01:57:34;;;;;;;5.72;3.05;;;8.10;99.90;;;;;;5117798;27;20020;-87
2023/10/31 02:00:00;;;;;;;4.43;3.90;;;8.10;99.90;;;;;;5069782;28;20493;-87
2023/10/31 02:02:28;;;;;;;4.85;4.00;;;8.20;99.90;;;;;;5065778;28;20735;-85
2023/10/31 02:04:54;;;;;;;5.00;3.78;;;8.30;99.90;;;;;;5079850;28;20123;-85
2023/10/31 02:07:22;;;;;;;5.50;4.00;;;8.30;99.90;;;;;;5084946;28;20114;-86
2023/10/31 02:09:48;;;;;;;5.13;3.90;;;8.30;99.90;;;;;;5118168;27;20126;-86
2023/10/31 02:12:33;;;;;;;4.53;4.00;;;8.30;99.90;;;;;;5062671;28;20482;-86
2023/10/31 02:14:59;;;;;;;7.90;3.58;;;8.30;99.90;;;;;;5069289;28;20024;-87
2023/10/31 02:17:25;;;;;;;10.15;4.72;;;8.30;99.90;;;;;;5062595;28;20024;-86
2023/10/31 02:19:51;;;;;;;9.55;4.72;;;8.30;99.90;;;;;;5101622;28;20020;-86
2023/10/31 02:22:16;;;;;;;7.75;4.40;;;8.40;99.90;;;;;;5081526;28;20039;-86
2023/10/31 02:24:42;;;;;;;9.68;5.30;;;8.40;99.90;;;;;;5085082;28;20413;-86
2023/10/31 02:27:08;;;;;;;9.23;5.47;;;8.40;99.90;;;;;;5064588;28;20024;-86
2023/10/31 02:29:46;;;;;;;8.63;5.38;;;8.40;99.90;;;;;;5066225;28;20034;-86
2023/10/31 02:32:12;;;;;;;7.82;5.80;;;8.40;99.90;;;;;;5070033;28;20086;-86
2023/10/31 02:34:38;;;;;;;8.13;5.85;;;8.40;99.90;;;;;;5114934;27;20035;-86
2023/10/31 02:37:05;;;;;;;8.65;6.40;;;8.40;99.90;;;;;;5111403;28;20123;-86
2023/10/31 02:39:30;;;;;;;13.73;5.75;;;8.40;99.90;;;;;;5065379;28;20032;-86
2023/10/31 02:42:12;;;;;;;12.52;6.00;;;8.40;99.90;;;;;;5062033;28;20028;-87
2023/10/31 02:44:38;;;;;;;8.80;6.03;;;8.40;99.90;;;;;;5080453;28;20043;-87
2023/10/31 02:47:04;;;;;;;10.07;5.47;;;8.40;99.90;;;;;;5109383;28;20031;-86
2023/10/31 02:49:30;;;;;;;10.73;7.53;;;8.40;99.90;;;;;;5084122;28;20095;-86
2023/10/31 02:51:55;;;;;;;9.75;7.45;;;8.40;99.90;;;;;;5112762;27;20498;-86
2023/10/31 02:54:22;;;;;;;11.23;7.88;;;8.40;99.90;;;;;;5077277;28;20070;-85
2023/10/31 02:56:47;;;;;;;10.63;8.25;;;8.40;99.90;;;;;;5067735;28;20699;-85
2023/10/31 02:59:13;;;;;;;13.00;8.05;;;8.40;99.90;;;;;;5097748;28;20695;-84
2023/10/31 03:01:39;;;;;;;10.07;7.05;;;8.50;99.90;;;;;;5064373;28;20470;-85
2023/10/31 03:04:05;;;;;;;12.05;7.30;;;8.40;99.90;;;;;;5062052;28;20111;-86
2023/10/31 03:06:30;;;;;;;9.48;7.18;;;8.40;99.90;;;;;;5084991;28;20043;-86
2023/10/31 03:08:56;;;;;;;11.48;8.00;;;8.40;99.90;;;;;;5064203;28;20035;-85
2023/10/31 03:11:23;;;;;;;10.55;7.70;;;8.40;99.90;;;;;;5109518;28;20169;-85
2023/10/31 03:13:49;;;;;;;12.82;9.18;;;8.40;99.90;;;;;;5081419;28;20085;-86
2023/10/31 03:16:15;;;;;;;12.20;7.35;;;8.40;99.90;;;;;;5067704;28;20809;-85
2023/10/31 03:18:40;;;;;;;16.25;6.72;;;8.40;99.90;;;;;;5099204;28;20024;-85
2023/10/31 03:21:16;;;;;;;8.40;6.18;;;8.30;99.90;;;;;;5100227;28;20022;-86
2023/10/31 03:23:43;;;;;;;10.05;5.97;;;8.30;99.90;;;;;;5076095;28;20491;-86
2023/10/31 03:26:09;;;;;;;9.68;6.00;;;8.30;99.90;;;;;;5092685;28;20109;-85
2023/10/31 03:28:34;;;;;;;7.05;5.47;;;8.20;99.90;;;;;;5059947;28;20028;-85
2023/10/31 03:31:10;;;;;;;10.65;6.45;;;8.30;99.90;;;;;;5114849;27;20028;-85
2023/10/31 03:33:35;;;;;;;9.85;6.50;;;8.20;99.90;;;;;;5061368;28;20058;-85
2023/10/31 03:36:01;;;;;;;7.82;6.25;;;8.20;99.90;;;;;;5080614;28;20480;-86
2023/10/31 03:38:27;;;;;;;10.85;6.93;;;8.20;99.90;;;;;;5096232;28;20028;-86
2023/10/31 03:40:53;;;;;;;12.88;5.35;;;8.20;99.90;;;;;;5115819;27;20031;-86
2023/10/31 03:43:19;;;;;;;9.70;5.05;;;8.20;99.90;;;;;;5063754;28;20036;-86
2023/10/31 03:45:46;;;;;;;8.73;5.22;;;8.20;99.90;;;;;;5096637;28;20036;-85
2023/10/31 03:48:12;;;;;;;8.85;5.45;;;8.20;99.90;;;;;;5088203;28;20036;-86
2023/10/31 03:50:38;;;;;;;8.57;5.10;;;8.20;99.90;;;;;;5062888;28;20119;-85
2023/10/31 03:53:04;;;;;;;8.73;5.65;;;8.20;99.90;;;;;;5061707;28;20394;-85
2023/10/31 03:55:32;;;;;;;8.60;6.03;;;8.20;99.90;;;;;;5064837;28;20027;-85
2023/10/31 03:57:58;;;;;;;12.07;6.38;;;8.20;99.90;;;;;;5060241;28;20028;-86
2023/10/31 04:00:24;;;;;;;9.77;5.60;;;8.20;99.90;;;;;;5110383;27;20095;-86
2023/10/31 04:02:50;;;;;;;8.38;6.05;;;8.20;99.90;;;;;;5060540;28;20035;-85
2023/10/31 04:05:15;;;;;;;12.35;6.22;;;8.10;99.90;;;;;;5104187;28;20035;-86
2023/10/31 04:07:41;;;;;;;7.68;6.30;;;8.10;99.90;;;;;;5078564;28;20383;-85
2023/10/31 04:10:07;;;;;;;11.10;5.75;;;8.10;99.90;;;;;;5063715;28;20043;-85
2023/10/31 04:12:35;;;;;;;13.13;5.85;;;8.10;99.90;;;;;;5079369;28;20039;-85
2023/10/31 04:15:01;;;;;;;9.35;5.32;;;8.10;99.90;;;;;;5099269;28;20027;-85
2023/10/31 04:17:27;;;;;;;12.73;6.03;;;8.10;99.90;;;;;;5096385;28;20054;-85
2023/10/31 04:19:52;;;;;;;9.10;6.05;;;8.10;99.90;;;;;;5073517;28;20413;-85
2023/10/31 04:22:18;;;;;;;7.30;5.80;;;8.00;99.90;;;;;;5078288;28;21132;-86
2023/10/31 04:24:50;;;;;;;9.68;6.20;;;8.10;99.90;;;;;;5064124;28;20466;-85
2023/10/31 04:27:16;;;;;;;9.48;5.82;;;8.00;99.90;;;;;;5098043;28;20455;-85
2023/10/31 04:29:41;;;;;;;13.07;6.13;;;8.00;99.90;;;;;;5097488;28;20020;-86
2023/10/31 04:32:07;;;;;;;10.38;6.90;;;8.00;99.90;;;;;;5059856;28;20035;-85
2023/10/31 04:34:33;;;;;;;8.05;4.95;;;8.00;99.90;;;;;;5082082;28;20031;-85
2023/10/31 04:36:58;;;;;;;8.02;4.95;;;7.90;99.90;;;;;;5060691;28;20016;-85
2023/10/31 04:39:24;;;;;;;8.80;4.85;;;7.90;99.90;;;;;;5109924;27;20035;-85
2023/10/31 04:41:50;;;;;;;7.15;5.00;;;7.90;99.90;;;;;;5063958;28;20055;-85
2023/10/31 04:44:16;;;;;;;7.75;4.72;;;7.90;99.90;;;;;;5120112;27;20479;-85
2023/10/31 04:46:42;;;;;;;5.63;4.80;;;7.90;99.90;;;;;;5109056;28;20107;-85
2023/10/31 04:49:08;;;;;;;6.13;4.40;;;7.90;99.90;;;;;;5103090;28;20062;-85
2023/10/31 04:51:37;;;;;;;10.93;4.80;;;7.90;99.90;;;;;;5098809;28;20070;-85
2023/10/31 04:54:04;;;;;;;9.73;4.53;;;7.90;99.90;;;;;;5065638;28;20032;-85
2023/10/31 04:56:30;;;;;;;5.95;5.03;;;7.90;99.90;;;;;;5100925;28;20020;-85
2023/10/31 04:58:55;;;;;;;7.03;4.75;;;7.90;99.90;;;;;;5078566;28;20391;-85
2023/10/31 05:01:21;;;;;;;8.30;5.00;;;7.90;99.90;;;;;;5083120;28;20432;-85
2023/10/31 05:03:47;;;;;;;17.63;10.05;;;7.90;99.90;;;;;;5090413;28;20538;-85
2023/10/31 05:06:12;;;;;;;47.22;24.08;;;7.90;99.90;;;;;;5084103;28;20391;-84
2023/10/31 05:08:48;;;;;;;10.05;6.60;;;7.90;99.90;;;;;;5063993;28;20375;-84
2023/10/31 05:11:16;;;;;;;7.82;4.80;;;7.90;99.90;;;;;;5078235;28;20019;-85
2023/10/31 05:13:41;;;;;;;11.68;4.72;;;7.80;99.90;;;;;;5083175;28;20736;-85
2023/10/31 05:16:07;;;;;;;11.05;5.68;;;7.80;99.90;;;;;;5063437;28;20023;-85
2023/10/31 05:18:33;;;;;;;7.28;4.88;;;7.80;99.90;;;;;;5092129;28;20115;-86
2023/10/31 05:20:58;;;;;;;13.20;6.30;;;7.80;99.90;;;;;;5097690;28;20023;-85
2023/10/31 05:23:24;;;;;;;7.10;4.80;;;7.70;99.90;;;;;;5061138;28;20057;-85
2023/10/31 05:25:50;;;;;;;8.13;5.32;;;7.80;99.90;;;;;;5080550;28;20098;-85
2023/10/31 05:28:15;;;;;;;8.80;5.20;;;7.70;99.90;;;;;;5063830;28;20028;-86
2023/10/31 05:30:41;;;;;;;11.65;5.53;;;7.80;99.90;;;;;;5065157;28;20032;-84
2023/10/31 05:33:07;;;;;;;9.73;5.18;;;7.70;99.90;;;;;;5090397;28;20035;-85
2023/10/31 05:35:33;;;;;;;8.70;5.03;;;7.70;99.90;;;;;;5081444;28;20107;-85
2023/10/31 05:37:59;;;;;;;10.30;5.18;;;7.70;99.90;;;;;;5118726;28;20058;-85
2023/10/31 05:40:50;;;;;;;7.13;5.63;;;7.70;99.90;;;;;;5083091;28;20055;-85
2023/10/31 05:43:15;;;;;;;8.07;6.57;;;7.70;99.90;;;;;;5108153;28;20383;-85
2023/10/31 05:45:42;;;;;;;11.15;6.10;;;7.70;99.90;;;;;;5060969;28;20067;-85
2023/10/31 05:48:08;;;;;;;17.58;5.80;;;7.70;99.90;;;;;;5063758;28;20059;-85
2023/10/31 05:50:33;;;;;;;14.45;5.70;;;7.70;99.90;;;;;;5087188;28;20024;-85
2023/10/31 05:52:59;;;;;;;9.82;5.82;;;7.70;99.90;;;;;;5068314;28;20030;-84
2023/10/31 05:55:25;;;;;;;7.05;5.65;;;7.70;99.90;;;;;;5069405;28;20015;-85
2023/10/31 05:57:50;;;;;;;14.40;6.32;;;7.80;99.90;;;;;;5078478;28;20077;-84
2023/10/31 06:00:16;;;;;;;12.93;6.75;;;7.80;99.90;;;;;;5088589;28;20020;-84
2023/10/31 06:02:42;;;;;;;10.27;6.30;;;7.70;99.90;;;;;;5096925;28;20055;-84
2023/10/31 06:05:08;;;;;;;11.35;5.50;;;7.70;99.90;;;;;;5082797;28;20063;-85
2023/10/31 06:07:34;;;;;;;12.05;5.88;;;7.70;99.90;;;;;;5080303;28;20031;-86
2023/10/31 06:09:59;;;;;;;11.23;5.78;;;7.70;99.90;;;;;;5110726;28;20402;-85
2023/10/31 06:12:25;;;;;;;11.27;6.13;;;7.70;99.90;;;;;;5059089;28;20036;-85
2023/10/31 06:14:50;;;;;;;9.75;5.45;;;7.70;99.90;;;;;;5087077;28;20707;-85
2023/10/31 06:17:17;;;;;;;12.63;5.72;;;7.70;99.90;;;;;;5100144;28;20024;-84
2023/10/31 06:19:45;;;;;;;10.85;5.47;;;7.70;99.90;;;;;;5081738;28;20795;-85
2023/10/31 06:22:11;;;;;;;10.07;5.43;;;7.70;99.90;;;;;;5083883;28;20417;-84
2023/10/31 06:24:37;;;;;;;9.80;6.43;;;7.70;99.90;;;;;;5083404;28;20180;-84
2023/10/31 06:27:03;;;;;;;12.45;6.13;;;7.70;99.90;;;;;;5054607;28;20562;-85
2023/10/31 06:29:28;;;;;;;11.80;5.18;;;7.70;99.90;;;;;;5078933;28;20107;-85
2023/10/31 06:31:54;;;;;;;8.95;5.60;;;7.70;99.90;;;;;;5078338;28;20127;-85
2023/10/31 06:34:20;;;;;;;10.57;5.68;;;7.60;99.90;;;;;;5084452;28;20042;-85
2023/10/31 06:36:45;;;;;;;8.07;4.82;;;7.60;99.90;;;;;;5093426;28;20024;-85
2023/10/31 06:39:11;;;;;;;9.80;4.70;;;7.60;99.90;;;;;;5095129;28;20088;-85
2023/10/31 06:41:36;;;;;;;9.98;4.47;;;7.60;99.90;;;;;;5096012;28;20020;-85
2023/10/31 06:44:03;;;;;;;10.50;5.50;;;7.60;99.90;;;;;;5060890;28;20672;-85
2023/10/31 06:46:29;;;;;;;13.23;5.13;;;7.60;99.90;;;;;;5090330;28;20028;-85
2023/10/31 06:48:54;;;;;;;7.57;5.43;;;7.60;99.90;;;;;;5077727;28;20054;-85
2023/10/31 06:51:20;;;;;;;9.80;6.13;;;7.60;99.90;;;;;;5068170;28;20024;-85
2023/10/31 06:53:46;;;;;;;12.48;5.30;;;7.60;99.90;;;;;;5082016;28;20028;-85
2023/10/31 06:56:12;;;;;;;7.25;4.22;;;7.60;99.90;;;;;;5087025;28;20031;-85
2023/10/31 06:58:37;;;;;;;4.13;3.63;;;7.60;99.90;;;;;;5062122;28;20024;-86
2023/10/31 07:01:03;;;;;;;7.35;3.95;;;7.60;99.90;;;;;;5098287;28;20026;-85
2023/10/31 07:03:29;;;;;;;11.20;4.45;;;7.60;99.90;;;;;;5095194;28;20126;-85
2023/10/31 07:05:56;;;;;;;6.35;4.10;;;7.60;99.90;;;;;;5100807;28;20124;-85
2023/10/31 07:08:23;;;;;;;10.60;4.82;;;7.70;99.90;;;;;;5083305;28;20023;-85
2023/10/31 07:10:48;;;;;;;7.05;5.28;;;7.60;99.90;;;;;;5111313;27;20020;-85
2023/10/31 07:13:14;;;;;;;9.88;6.55;;;7.50;99.90;;;;;;5097627;28;20035;-85
2023/10/31 07:15:40;;;;;;;9.52;6.20;;;7.60;99.90;;;;;;5061885;28;20039;-84
2023/10/31 07:18:07;;;;;;;12.82;7.20;;;7.60;99.90;;;;;;5101229;28;20138;-85
2023/10/31 07:20:33;;;;;;;13.02;7.50;;;7.50;99.90;;;;;;5058003;28;20743;-85
2023/10/31 07:22:59;;;;;;;13.75;8.23;;;7.50;99.90;;;;;;5095317;28;20027;-85
2023/10/31 07:25:24;;;;;;;12.27;7.10;;;7.60;99.90;;;;;;5081276;28;20505;-85
2023/10/31 07:27:50;;;;;;;17.30;8.05;;;7.60;99.90;;;;;;5108094;28;20736;-85
2023/10/31 07:30:16;;;;;;;15.00;8.00;;;7.60;99.90;;;;;;5059681;28;20032;-85
2023/10/31 07:32:42;;;;;;;15.35;8.48;;;7.60;99.90;;;;;;5060908;28;20075;-85
2023/10/31 07:35:08;;;;;;;11.85;8.25;;;7.70;99.90;;;;;;5115044;27;20124;-85
2023/10/31 07:37:33;;;;;;;14.32;9.05;;;7.60;99.90;;;;;;5076629;28;20035;-85
2023/10/31 07:39:59;;;;;;;16.90;8.65;;;7.70;99.90;;;;;;5081769;28;20027;-85
2023/10/31 07:42:25;;;;;;;17.48;8.02;;;7.70;99.90;;;;;;5070133;28;20043;-85
2023/10/31 07:44:51;;;;;;;15.02;8.35;;;7.70;99.90;;;;;;5073348;28;20036;-85
2023/10/31 07:47:17;;;;;;;15.70;8.85;;;7.70;99.90;;;;;;5069453;28;20642;-85
2023/10/31 07:49:42;;;;;;;16.70;9.13;;;7.70;99.90;;;;;;5120282;27;20031;-86
2023/10/31 07:52:08;;;;;;;11.63;8.57;;;7.80;99.90;;;;;;5116698;27;20390;-85
2023/10/31 07:54:34;;;;;;;13.10;8.20;;;7.70;99.90;;;;;;5086028;28;20490;-85
2023/10/31 07:57:00;;;;;;;12.05;7.65;;;7.70;99.90;;;;;;5059764;28;20043;-85
2023/10/31 07:59:29;;;;;;;16.75;8.05;;;7.70;99.90;;;;;;5057469;28;20028;-84
2023/10/31 08:01:54;;;;;;;13.07;7.90;;;7.60;99.90;;;;;;5117332;27;20607;-84
2023/10/31 08:04:20;;;;;;;11.45;7.32;;;7.70;99.90;;;;;;5057468;28;20060;-85
2023/10/31 08:06:46;;;;;;;14.52;7.38;;;7.70;99.90;;;;;;5109150;27;20470;-84
2023/10/31 08:09:11;;;;;;;17.10;8.85;;;7.70;99.90;;;;;;5063509;28;20070;-85
2023/10/31 08:11:37;;;;;;;11.25;7.45;;;7.70;99.90;;;;;;5056413;28;20028;-84
2023/10/31 08:14:03;;;;;;;18.25;8.10;;;7.70;99.90;;;;;;5113531;27;20035;-84
2023/10/31 08:16:29;;;;;;;11.88;7.90;;;7.70;99.90;;;;;;5079983;28;20379;-86
2023/10/31 08:18:55;;;;;;;13.80;7.53;;;7.70;99.90;;;;;;5076368;28;20024;-85
2023/10/31 08:21:20;;;;;;;19.20;8.07;;;7.80;99.90;;;;;;5060515;28;20099;-85
2023/10/31 08:23:46;;;;;;;16.38;7.38;;;7.70;99.90;;;;;;5078560;28;20073;-84
2023/10/31 08:26:13;;;;;;;11.30;7.88;;;7.80;99.90;;;;;;5093244;28;20235;-85
2023/10/31 08:28:39;;;;;;;15.15;8.63;;;7.70;99.90;;;;;;5081629;28;20032;-84
2023/10/31 08:31:04;;;;;;;15.48;8.15;;;7.80;99.90;;;;;;5081562;28;20030;-84
2023/10/31 08:33:30;;;;;;;12.52;7.97;;;7.80;99.90;;;;;;5067192;28;20424;-85
2023/10/31 08:35:56;;;;;;;19.65;9.40;;;7.70;99.90;;;;;;5056992;28;20467;-85
2023/10/31 08:38:22;;;;;;;15.82;8.98;;;7.70;99.90;;;;;;5089487;28;20103;-85
2023/10/31 08:40:48;;;;;;;12.55;8.57;;;7.70;99.90;;;;;;5097045;28;20030;-85
2023/10/31 08:43:14;;;;;;;15.85;8.32;;;7.70;99.90;;;;;;5073985;28;20031;-84
2023/10/31 08:45:40;;;;;;;18.15;9.35;;;7.70;99.90;;;;;;5079344;28;20028;-84
2023/10/31 08:48:05;;;;;;;18.23;9.15;;;7.70;99.90;;;;;;5112788;27;20441;-85
2023/10/31 08:50:31;;;;;;;11.68;7.93;;;7.80;99.90;;;;;;5103165;28;20482;-85
2023/10/31 08:52:57;;;;;;;18.83;9.20;;;7.80;99.90;;;;;;5083222;28;20508;-85
2023/10/31 08:55:23;;;;;;;15.35;9.13;;;7.70;99.90;;;;;;5070420;28;20119;-85
2023/10/31 08:57:48;;;;;;;16.48;8.23;;;7.70;99.90;;;;;;5099437;28;20019;-85
2023/10/31 09:00:14;;;;;;;13.90;8.02;;;7.70;99.90;;;;;;5078070;28;20020;-85
2023/10/31 09:02:40;;;;;;;18.30;8.75;;;7.70;99.90;;;;;;5093826;28;20035;-85
2023/10/31 09:05:06;;;;;;;19.35;9.45;;;7.70;99.90;;;;;;5078638;28;20024;-85
2023/10/31 09:07:32;;;;;;;16.02;7.90;;;7.70;99.90;;;;;;5083294;28;20052;-85
2023/10/31 09:09:58;;;;;;;18.88;7.43;;;7.80;99.90;;;;;;5056877;28;20487;-85
2023/10/31 09:12:24;;;;;;;16.85;8.32;;;7.80;99.90;;;;;;5072115;28;20035;-85
2023/10/31 09:14:49;;;;;;;16.42;8.32;;;7.80;99.90;;;;;;5057045;28;20016;-85
2023/10/31 09:17:37;;;;;;;11.73;7.55;;;7.90;99.90;;;;;;5107284;28;20067;-85
2023/10/31 09:20:03;;;;;;;15.05;7.65;;;7.90;99.90;;;;;;5117116;28;20038;-84
2023/10/31 09:22:28;;;;;;;22.65;7.50;;;7.90;99.90;;;;;;5093598;28;20466;-85
2023/10/31 09:24:54;;;;;;;20.55;7.70;;;7.90;99.90;;;;;;5085713;28;20038;-85
2023/10/31 09:27:20;;;;;;;16.15;7.47;;;7.90;99.90;;;;;;5061406;28;20024;-84
2023/10/31 09:29:45;;;;;;;18.17;8.20;;;7.90;99.90;;;;;;5086006;28;20023;-85
2023/10/31 09:32:11;;;;;;;16.48;7.35;;;7.90;99.90;;;;;;5067526;28;20112;-85
2023/10/31 09:34:36;;;;;;;12.23;7.25;;;7.90;99.90;;;;;;5068294;28;20028;-85
2023/10/31 09:37:02;;;;;;;16.13;6.72;;;7.90;99.90;;;;;;5066343;28;20061;-84
2023/10/31 09:39:28;;;;;;;18.58;7.55;;;7.80;99.90;;;;;;5067858;28;20031;-85
2023/10/31 09:41:54;;;;;;;13.95;6.97;;;7.80;99.90;;;;;;5088899;28;20020;-85
2023/10/31 09:44:20;;;;;;;15.52;6.78;;;7.90;99.90;;;;;;5070274;28;20119;-85
2023/10/31 09:46:45;;;;;;;10.63;6.57;;;7.90;99.90;;;;;;5076321;28;20721;-84
2023/10/31 09:49:11;;;;;;;16.08;6.70;;;8.00;99.90;;;;;;5104054;28;20498;-85
2023/10/31 09:51:38;;;;;;;13.75;6.55;;;8.00;99.90;;;;;;5066426;28;20020;-84
2023/10/31 09:54:06;;;;;;;12.13;6.07;;;8.10;99.90;;;;;;5063914;28;20094;-84
2023/10/31 09:56:34;;;;;;;15.30;6.38;;;8.10;99.90;;;;;;5068156;28;20038;-85
2023/10/31 09:59:04;;;;;;;17.65;6.68;;;8.20;99.90;;;;;;5065868;28;20034;-84
2023/10/31 10:01:30;;;;;;;12.43;5.50;;;8.30;99.90;;;;;;5097994;28;20085;-85
2023/10/31 10:03:56;;;;;;;15.70;5.20;;;8.40;99.90;;;;;;5074771;28;20028;-84
2023/10/31 10:06:23;;;;;;;16.75;7.20;;;8.40;99.90;;;;;;5081201;28;20035;-85
2023/10/31 10:08:50;;;;;;;18.65;8.88;;;8.50;99.90;;;;;;5086090;28;20062;-85
2023/10/31 10:11:15;;;;;;;63.35;26.27;;;8.80;99.90;;;;;;5082211;28;20031;-85
2023/10/31 10:13:41;;;;;;;35.35;15.95;;;8.90;99.90;;;;;;5069354;28;20471;-86
2023/10/31 10:16:07;;;;;;;20.17;6.03;;;9.00;99.90;;;;;;5067354;28;20083;-86
2023/10/31 10:18:35;;;;;;;21.25;11.10;;;9.00;99.90;;;;;;5081537;28;20442;-86
2023/10/31 10:21:02;;;;;;;8.15;4.45;;;9.00;99.90;;;;;;5067438;28;20027;-86
2023/10/31 10:23:29;;;;;;;11.65;3.63;;;9.20;99.90;;;;;;5100926;28;20165;-85
2023/10/31 10:25:57;;;;;;;8.38;3.20;;;9.30;99.90;;;;;;5080706;28;20031;-85
2023/10/31 10:28:24;;;;;;;10.63;3.08;;;9.30;99.90;;;;;;5067553;28;20031;-86
2023/10/31 10:30:51;;;;;;;4.97;2.83;;;9.40;99.90;;;;;;5101010;28;20111;-84
2023/10/31 10:33:17;;;;;;;8.35;3.15;;;9.50;99.90;;;;;;5068091;28;20028;-85
2023/10/31 10:35:44;;;;;;;11.90;3.40;;;9.50;99.90;;;;;;5067365;28;20031;-85
2023/10/31 10:38:18;;;;;;;6.60;2.60;;;9.60;99.90;;;;;;5060977;28;20031;-85
2023/10/31 10:40:48;;;;;;;16.33;3.25;;;9.80;99.90;;;;;;5087000;28;20020;-85
2023/10/31 10:43:23;;;;;;;17.20;4.47;;;10.20;99.90;;;;;;5079869;28;21071;-85
2023/10/31 10:45:59;;;;;;;19.73;9.05;;;10.40;99.90;;;;;;5076234;28;20217;-85
2023/10/31 10:48:26;;;;;;;5.18;2.90;;;10.50;99.90;;;;;;5068733;28;20028;-85
2023/10/31 10:50:59;;;;;;;5.13;2.80;;;10.40;99.90;;;;;;5069668;28;20050;-84
2023/10/31 10:53:49;;;;;;;12.77;3.88;;;10.30;99.90;;;;;;5086886;28;20233;-85
2023/10/31 10:56:25;;;;;;;14.88;3.40;;;10.20;99.90;;;;;;5074749;28;20024;-84
2023/10/31 10:59:10;;;;;;;10.93;3.20;;;10.10;99.90;;;;;;5108949;27;20028;-84
2023/10/31 11:01:38;;;;;;;7.50;2.70;;;10.00;99.90;;;;;;5093935;28;20681;-84
2023/10/31 11:04:06;;;;;;;16.63;4.90;;;9.90;99.90;;;;;;5085897;28;20066;-85
2023/10/31 11:06:48;;;;;;;8.45;3.45;;;9.80;99.90;;;;;;5058557;28;20032;-85
2023/10/31 11:09:14;;;;;;;11.38;2.75;;;9.80;99.90;;;;;;5073857;28;20078;-84
2023/10/31 11:11:41;;;;;;;25.88;2.75;;;9.90;99.90;;;;;;5066995;28;20039;-84
2023/10/31 11:14:07;;;;;;;6.72;2.13;;;10.00;99.90;;;;;;5075860;28;20101;-83
2023/10/31 11:16:44;;;;;;;11.18;2.45;;;9.90;99.90;;;;;;5075585;28;20044;-84
2023/10/31 11:19:10;;;;;;;7.22;2.60;;;9.90;99.90;;;;;;5076676;28;20028;-84
2023/10/31 11:21:36;;;;;;;8.02;2.47;;;10.10;99.90;;;;;;5070269;28;20035;-84
2023/10/31 11:24:03;;;;;;;6.07;2.28;;;10.30;99.90;;;;;;5072834;28;20391;-85
2023/10/31 11:26:32;;;;;;;5.53;3.08;;;10.10;99.90;;;;;;5099549;28;20024;-85
2023/10/31 11:29:10;;;;;;;5.57;2.15;;;10.20;99.90;;;;;;5109574;27;20036;-84
2023/10/31 11:31:37;;;;;;;10.93;3.13;;;10.20;99.90;;;;;;5092951;28;20020;-84
2023/10/31 11:34:03;;;;;;;16.95;2.88;;;10.30;99.90;;;;;;5090154;28;20131;-84
2023/10/31 11:36:33;;;;;;;7.65;2.10;;;10.40;99.90;;;;;;5072292;28;20035;-85
2023/10/31 11:39:15;;;;;;;10.85;3.33;;;10.50;99.90;;;;;;5061857;28;20039;-84
2023/10/31 11:41:45;;;;;;;12.50;2.38;;;10.60;99.90;;;;;;5067531;28;20036;-84
2023/10/31 11:44:11;;;;;;;9.85;3.22;;;10.50;99.90;;;;;;5073726;28;20497;-85
2023/10/31 11:46:36;;;;;;;9.60;2.08;;;10.70;99.90;;;;;;5074235;28;20066;-84
2023/10/31 11:49:05;;;;;;;13.02;2.45;;;10.50;99.90;;;;;;5074578;28;20164;-84
2023/10/31 11:51:30;;;;;;;6.18;1.98;;;10.40;99.90;;;;;;5054838;28;20032;-84
2023/10/31 11:54:14;;;;;;;19.50;10.25;;;10.20;99.90;;;;;;5071039;28;20035;-84
2023/10/31 11:56:39;;;;;;;96.43;42.38;;;10.10;99.90;;;;;;5088624;28;20024;-84
2023/10/31 11:59:07;;;;;;;17.00;4.70;;;10.00;99.90;;;;;;5096599;28;20665;-84
2023/10/31 12:01:33;;;;;;;22.15;10.07;;;9.90;99.90;;;;;;5092065;28;20035;-84
2023/10/31 12:03:59;;;;;;;90.80;36.70;;;10.00;99.90;;;;;;5108512;28;20028;-84
2023/10/31 12:06:25;;;;;;;93.47;37.85;;;10.10;99.90;;;;;;5090271;28;20123;-84
2023/10/31 12:08:51;;;;;;;51.83;21.95;;;10.20;99.90;;;;;;5057438;28;20722;-85
2023/10/31 12:11:23;;;;;;;8.77;3.15;;;10.30;99.90;;;;;;5090402;28;20035;-84
2023/10/31 12:13:54;;;;;;;9.63;2.40;;;10.40;99.90;;;;;;5076796;28;20031;-84
2023/10/31 12:16:22;;;;;;;6.70;2.20;;;10.60;99.90;;;;;;5073727;28;20024;-84
2023/10/31 12:18:55;;;;;;;11.82;2.60;;;10.60;99.90;;;;;;5051940;28;20024;-84
2023/10/31 12:21:33;;;;;;;14.25;2.17;;;10.80;99.90;;;;;;5089719;28;20100;-84
2023/10/31 12:24:06;;;;;;;13.85;4.97;;;10.90;99.90;;;;;;5081826;28;20043;-84
2023/10/31 12:26:34;;;;;;;14.13;4.43;;;10.90;99.90;;;;;;5103002;27;20493;-84
2023/10/31 12:29:16;;;;;;;15.63;2.92;;;10.90;99.90;;;;;;5063973;28;20498;-84
2023/10/31 12:31:47;;;;;;;7.22;2.30;;;11.10;99.90;;;;;;5090096;28;20023;-84
2023/10/31 12:34:14;;;;;;;3.70;1.50;;;11.20;99.90;;;;;;5076213;28;20034;-84
2023/10/31 12:36:41;;;;;;;8.32;1.98;;;11.40;99.90;;;;;;5063115;28;20061;-84
2023/10/31 12:39:09;;;;;;;7.57;1.90;;;11.40;99.90;;;;;;5061890;28;20421;-84
2023/10/31 12:41:36;;;;;;;6.53;1.75;;;11.60;99.90;;;;;;5064844;28;20175;-85
2023/10/31 12:44:04;;;;;;;9.20;1.85;;;11.50;99.90;;;;;;5063626;28;20035;-85
2023/10/31 12:46:31;;;;;;;11.88;1.73;;;11.30;99.90;;;;;;5099491;28;20054;-84
2023/10/31 12:48:57;;;;;;;6.88;1.83;;;11.20;99.90;;;;;;5065446;28;20031;-84